sensor_id;sensor_type;location;lat;lon;timestamp;P1;durP1;ratioP1;P2;durP2;ratioP2
54545;SDS011;40444;45.184;9.850;2023-12-28T00:00:55;43.55;;;33.00;;
54545;SDS011;40444;45.184;9.850;2023-12-28T00:03:23;38.67;;;32.47;;
54545;SDS011;40444;45.184;9.850;2023-12-28T00:05:52;42.47;;;33.95;;
54545;SDS011;40444;45.184;9.850;2023-12-28T00:08:21;42.40;;;35.30;;
54545;SDS011;40444;45.184;9.850;2023-12-28T00:10:50;45.45;;;34.78;;
54545;SDS011;40444;45.184;9.850;2023-12-28T00:13:19;41.17;;;32.60;;
54545;SDS011;40444;45.184;9.850;2023-12-28T00:15:47;40.72;;;33.80;;
54545;SDS011;40444;45.184;9.850;2023-12-28T00:18:15;48.38;;;37.60;;
54545;SDS011;40444;45.184;9.850;2023-12-28T00:20:47;43.78;;;35.53;;
54545;SDS011;40444;45.184;9.850;2023-12-28T00:23:16;47.97;;;37.78;;
54545;SDS011;40444;45.184;9.850;2023-12-28T00:25:44;50.13;;;37.67;;
54545;SDS011;40444;45.184;9.850;2023-12-28T00:28:13;49.75;;;39.45;;
54545;SDS011;40444;45.184;9.850;2023-12-28T00:30:42;46.72;;;37.88;;
54545;SDS011;40444;45.184;9.850;2023-12-28T00:33:10;49.10;;;39.10;;
54545;SDS011;40444;45.184;9.850;2023-12-28T00:35:39;48.00;;;37.15;;
54545;SDS011;40444;45.184;9.850;2023-12-28T00:38:08;45.97;;;37.88;;
54545;SDS011;40444;45.184;9.850;2023-12-28T00:40:36;47.63;;;37.17;;
54545;SDS011;40444;45.184;9.850;2023-12-28T00:43:05;50.13;;;37.90;;
54545;SDS011;40444;45.184;9.850;2023-12-28T00:45:34;53.47;;;37.83;;
54545;SDS011;40444;45.184;9.850;2023-12-28T00:48:02;48.50;;;36.58;;
54545;SDS011;40444;45.184;9.850;2023-12-28T00:50:32;44.05;;;36.25;;
54545;SDS011;40444;45.184;9.850;2023-12-28T00:53:00;45.88;;;37.65;;
54545;SDS011;40444;45.184;9.850;2023-12-28T00:55:29;44.97;;;36.63;;
54545;SDS011;40444;45.184;9.850;2023-12-28T00:57:58;48.30;;;37.33;;
54545;SDS011;40444;45.184;9.850;2023-12-28T01:00:27;48.97;;;38.35;;
54545;SDS011;40444;45.184;9.850;2023-12-28T01:02:57;44.00;;;36.75;;
54545;SDS011;40444;45.184;9.850;2023-12-28T01:05:25;43.58;;;36.42;;
54545;SDS011;40444;45.184;9.850;2023-12-28T01:07:56;45.92;;;35.75;;
54545;SDS011;40444;45.184;9.850;2023-12-28T01:10:27;45.42;;;35.88;;
54545;SDS011;40444;45.184;9.850;2023-12-28T01:12:55;47.25;;;36.83;;
54545;SDS011;40444;45.184;9.850;2023-12-28T01:15:25;47.00;;;37.70;;
54545;SDS011;40444;45.184;9.850;2023-12-28T01:17:53;46.83;;;36.78;;
54545;SDS011;40444;45.184;9.850;2023-12-28T01:20:24;46.20;;;37.13;;
54545;SDS011;40444;45.184;9.850;2023-12-28T01:22:52;47.40;;;35.88;;
54545;SDS011;40444;45.184;9.850;2023-12-28T01:25:21;47.40;;;36.83;;
54545;SDS011;40444;45.184;9.850;2023-12-28T01:27:50;46.13;;;35.58;;
54545;SDS011;40444;45.184;9.850;2023-12-28T01:30:18;46.03;;;36.47;;
54545;SDS011;40444;45.184;9.850;2023-12-28T01:32:47;43.50;;;35.63;;
54545;SDS011;40444;45.184;9.850;2023-12-28T01:35:16;42.78;;;35.97;;
54545;SDS011;40444;45.184;9.850;2023-12-28T01:37:45;47.00;;;37.15;;
54545;SDS011;40444;45.184;9.850;2023-12-28T01:40:14;44.67;;;35.67;;
54545;SDS011;40444;45.184;9.850;2023-12-28T01:42:44;45.97;;;36.08;;
54545;SDS011;40444;45.184;9.850;2023-12-28T01:45:13;44.28;;;35.80;;
54545;SDS011;40444;45.184;9.850;2023-12-28T01:47:42;44.97;;;35.88;;
54545;SDS011;40444;45.184;9.850;2023-12-28T01:50:11;47.33;;;36.85;;
54545;SDS011;40444;45.184;9.850;2023-12-28T01:52:39;45.70;;;35.63;;
54545;SDS011;40444;45.184;9.850;2023-12-28T01:55:09;45.83;;;36.15;;
54545;SDS011;40444;45.184;9.850;2023-12-28T01:57:38;47.97;;;36.95;;
54545;SDS011;40444;45.184;9.850;2023-12-28T02:00:07;46.30;;;35.92;;
54545;SDS011;40444;45.184;9.850;2023-12-28T02:02:41;43.50;;;35.22;;
54545;SDS011;40444;45.184;9.850;2023-12-28T02:05:10;42.30;;;34.90;;
54545;SDS011;40444;45.184;9.850;2023-12-28T02:07:40;43.47;;;34.90;;
54545;SDS011;40444;45.184;9.850;2023-12-28T02:10:09;43.88;;;35.33;;
54545;SDS011;40444;45.184;9.850;2023-12-28T02:12:38;46.95;;;37.78;;
54545;SDS011;40444;45.184;9.850;2023-12-28T02:15:06;47.45;;;35.83;;
54545;SDS011;40444;45.184;9.850;2023-12-28T02:17:37;45.70;;;37.20;;
54545;SDS011;40444;45.184;9.850;2023-12-28T02:20:11;44.13;;;35.47;;
54545;SDS011;40444;45.184;9.850;2023-12-28T02:22:42;47.75;;;35.60;;
54545;SDS011;40444;45.184;9.850;2023-12-28T02:25:11;42.15;;;35.45;;
54545;SDS011;40444;45.184;9.850;2023-12-28T02:27:41;44.20;;;35.65;;
54545;SDS011;40444;45.184;9.850;2023-12-28T02:30:19;43.05;;;35.67;;
54545;SDS011;40444;45.184;9.850;2023-12-28T02:33:08;44.67;;;36.33;;
54545;SDS011;40444;45.184;9.850;2023-12-28T02:36:01;44.80;;;35.38;;
54545;SDS011;40444;45.184;9.850;2023-12-28T02:38:34;46.63;;;36.60;;
54545;SDS011;40444;45.184;9.850;2023-12-28T02:41:04;44.53;;;34.30;;
54545;SDS011;40444;45.184;9.850;2023-12-28T02:43:34;42.55;;;34.28;;
54545;SDS011;40444;45.184;9.850;2023-12-28T02:46:03;45.05;;;35.40;;
54545;SDS011;40444;45.184;9.850;2023-12-28T02:48:32;42.28;;;35.33;;
54545;SDS011;40444;45.184;9.850;2023-12-28T02:51:00;47.20;;;36.70;;
54545;SDS011;40444;45.184;9.850;2023-12-28T02:53:28;45.83;;;36.05;;
54545;SDS011;40444;45.184;9.850;2023-12-28T02:55:57;43.35;;;35.38;;
54545;SDS011;40444;45.184;9.850;2023-12-28T02:58:25;45.35;;;34.63;;
54545;SDS011;40444;45.184;9.850;2023-12-28T03:00:54;47.63;;;34.90;;
54545;SDS011;40444;45.184;9.850;2023-12-28T03:03:23;43.90;;;35.38;;
54545;SDS011;40444;45.184;9.850;2023-12-28T03:05:51;43.22;;;34.13;;
54545;SDS011;40444;45.184;9.850;2023-12-28T03:08:20;48.45;;;36.53;;
54545;SDS011;40444;45.184;9.850;2023-12-28T03:10:50;44.33;;;36.25;;
54545;SDS011;40444;45.184;9.850;2023-12-28T03:13:21;42.90;;;35.35;;
54545;SDS011;40444;45.184;9.850;2023-12-28T03:15:49;42.78;;;34.67;;
54545;SDS011;40444;45.184;9.850;2023-12-28T03:18:18;45.78;;;35.28;;
54545;SDS011;40444;45.184;9.850;2023-12-28T03:20:47;42.53;;;36.70;;
54545;SDS011;40444;45.184;9.850;2023-12-28T03:23:15;41.40;;;33.95;;
54545;SDS011;40444;45.184;9.850;2023-12-28T03:25:44;42.55;;;34.55;;
54545;SDS011;40444;45.184;9.850;2023-12-28T03:28:13;45.53;;;35.08;;
54545;SDS011;40444;45.184;9.850;2023-12-28T03:30:41;41.17;;;34.70;;
54545;SDS011;40444;45.184;9.850;2023-12-28T03:33:10;43.25;;;35.22;;
54545;SDS011;40444;45.184;9.850;2023-12-28T03:35:39;40.30;;;34.10;;
54545;SDS011;40444;45.184;9.850;2023-12-28T03:38:07;44.55;;;35.88;;
54545;SDS011;40444;45.184;9.850;2023-12-28T03:40:36;44.38;;;34.90;;
54545;SDS011;40444;45.184;9.850;2023-12-28T03:43:05;43.92;;;33.75;;
54545;SDS011;40444;45.184;9.850;2023-12-28T03:45:34;42.10;;;33.67;;
54545;SDS011;40444;45.184;9.850;2023-12-28T03:48:02;40.40;;;34.22;;
54545;SDS011;40444;45.184;9.850;2023-12-28T03:50:32;44.22;;;34.80;;
54545;SDS011;40444;45.184;9.850;2023-12-28T03:53:01;42.55;;;34.20;;
54545;SDS011;40444;45.184;9.850;2023-12-28T03:55:30;38.63;;;32.88;;
54545;SDS011;40444;45.184;9.850;2023-12-28T03:57:59;40.50;;;34.47;;
54545;SDS011;40444;45.184;9.850;2023-12-28T04:00:28;43.92;;;34.83;;
54545;SDS011;40444;45.184;9.850;2023-12-28T04:02:58;43.58;;;34.42;;
54545;SDS011;40444;45.184;9.850;2023-12-28T04:05:28;42.30;;;34.35;;
54545;SDS011;40444;45.184;9.850;2023-12-28T04:07:57;44.65;;;34.15;;
54545;SDS011;40444;45.184;9.850;2023-12-28T04:10:29;40.05;;;32.83;;
54545;SDS011;40444;45.184;9.850;2023-12-28T04:13:00;40.67;;;34.10;;
54545;SDS011;40444;45.184;9.850;2023-12-28T04:15:35;40.28;;;33.47;;
54545;SDS011;40444;45.184;9.850;2023-12-28T04:18:04;44.88;;;33.53;;
54545;SDS011;40444;45.184;9.850;2023-12-28T04:20:33;40.03;;;34.42;;
54545;SDS011;40444;45.184;9.850;2023-12-28T04:23:01;42.30;;;35.13;;
54545;SDS011;40444;45.184;9.850;2023-12-28T04:25:29;42.83;;;35.28;;
54545;SDS011;40444;45.184;9.850;2023-12-28T04:27:58;43.95;;;35.10;;
54545;SDS011;40444;45.184;9.850;2023-12-28T04:30:41;42.75;;;34.03;;
54545;SDS011;40444;45.184;9.850;2023-12-28T04:33:10;42.65;;;35.13;;
54545;SDS011;40444;45.184;9.850;2023-12-28T04:35:39;45.58;;;35.88;;
54545;SDS011;40444;45.184;9.850;2023-12-28T04:38:08;44.20;;;34.85;;
54545;SDS011;40444;45.184;9.850;2023-12-28T04:40:37;44.53;;;35.97;;
54545;SDS011;40444;45.184;9.850;2023-12-28T04:43:05;42.67;;;35.03;;
54545;SDS011;40444;45.184;9.850;2023-12-28T04:45:34;40.60;;;34.50;;
54545;SDS011;40444;45.184;9.850;2023-12-28T04:48:03;44.85;;;35.70;;
54545;SDS011;40444;45.184;9.850;2023-12-28T04:50:34;47.97;;;37.15;;
54545;SDS011;40444;45.184;9.850;2023-12-28T04:53:06;43.05;;;36.03;;
54545;SDS011;40444;45.184;9.850;2023-12-28T04:55:34;45.88;;;36.58;;
54545;SDS011;40444;45.184;9.850;2023-12-28T04:58:03;45.53;;;36.92;;
54545;SDS011;40444;45.184;9.850;2023-12-28T05:00:32;46.83;;;37.25;;
54545;SDS011;40444;45.184;9.850;2023-12-28T05:03:01;45.53;;;35.78;;
54545;SDS011;40444;45.184;9.850;2023-12-28T05:05:29;50.88;;;37.70;;
54545;SDS011;40444;45.184;9.850;2023-12-28T05:07:58;49.78;;;38.05;;
54545;SDS011;40444;45.184;9.850;2023-12-28T05:10:27;43.38;;;35.72;;
54545;SDS011;40444;45.184;9.850;2023-12-28T05:12:55;46.42;;;36.45;;
54545;SDS011;40444;45.184;9.850;2023-12-28T05:15:28;47.17;;;36.47;;
54545;SDS011;40444;45.184;9.850;2023-12-28T05:17:57;46.67;;;36.28;;
54545;SDS011;40444;45.184;9.850;2023-12-28T05:20:26;42.28;;;34.45;;
54545;SDS011;40444;45.184;9.850;2023-12-28T05:22:54;45.25;;;36.15;;
54545;SDS011;40444;45.184;9.850;2023-12-28T17:06:56;62.15;;;42.42;;
54545;SDS011;40444;45.184;9.850;2023-12-28T17:09:25;63.13;;;44.30;;
54545;SDS011;40444;45.184;9.850;2023-12-28T17:11:57;65.35;;;44.63;;
54545;SDS011;40444;45.184;9.850;2023-12-28T17:14:41;59.50;;;42.67;;
54545;SDS011;40444;45.184;9.850;2023-12-28T17:17:09;59.65;;;42.70;;
54545;SDS011;40444;45.184;9.850;2023-12-28T17:19:38;61.83;;;41.25;;
54545;SDS011;40444;45.184;9.850;2023-12-28T17:22:07;55.13;;;40.30;;
54545;SDS011;40444;45.184;9.850;2023-12-28T17:24:40;52.83;;;39.55;;
54545;SDS011;40444;45.184;9.850;2023-12-28T17:27:23;53.35;;;39.92;;
54545;SDS011;40444;45.184;9.850;2023-12-28T17:29:58;52.33;;;37.60;;
54545;SDS011;40444;45.184;9.850;2023-12-28T17:32:32;51.88;;;37.63;;
54545;SDS011;40444;45.184;9.850;2023-12-28T17:35:04;48.97;;;38.63;;
54545;SDS011;40444;45.184;9.850;2023-12-28T17:37:34;46.72;;;36.95;;
54545;SDS011;40444;45.184;9.850;2023-12-28T17:40:03;46.67;;;36.00;;
54545;SDS011;40444;45.184;9.850;2023-12-28T17:42:33;47.17;;;36.08;;
54545;SDS011;40444;45.184;9.850;2023-12-28T17:45:05;53.22;;;36.42;;
54545;SDS011;40444;45.184;9.850;2023-12-28T17:47:52;48.75;;;37.10;;
54545;SDS011;40444;45.184;9.850;2023-12-28T17:50:37;50.55;;;37.63;;
54545;SDS011;40444;45.184;9.850;2023-12-28T17:53:07;48.97;;;37.10;;
54545;SDS011;40444;45.184;9.850;2023-12-28T17:55:36;57.90;;;37.97;;
54545;SDS011;40444;45.184;9.850;2023-12-28T17:58:04;47.80;;;35.30;;
54545;SDS011;40444;45.184;9.850;2023-12-28T18:00:34;49.95;;;35.55;;
54545;SDS011;40444;45.184;9.850;2023-12-28T18:03:05;49.63;;;36.15;;
54545;SDS011;40444;45.184;9.850;2023-12-28T18:05:34;48.22;;;37.53;;
54545;SDS011;40444;45.184;9.850;2023-12-28T18:08:03;51.20;;;35.53;;
54545;SDS011;40444;45.184;9.850;2023-12-28T18:10:32;48.55;;;35.85;;
54545;SDS011;40444;45.184;9.850;2023-12-28T18:13:01;50.80;;;35.90;;
54545;SDS011;40444;45.184;9.850;2023-12-28T18:15:29;50.17;;;37.17;;
54545;SDS011;40444;45.184;9.850;2023-12-28T18:17:58;48.22;;;35.80;;
54545;SDS011;40444;45.184;9.850;2023-12-28T18:20:27;51.05;;;36.05;;
54545;SDS011;40444;45.184;9.850;2023-12-28T18:22:56;51.25;;;38.97;;
54545;SDS011;40444;45.184;9.850;2023-12-28T18:25:24;57.10;;;38.78;;
54545;SDS011;40444;45.184;9.850;2023-12-28T18:27:55;55.53;;;36.63;;
54545;SDS011;40444;45.184;9.850;2023-12-28T18:30:24;53.20;;;38.25;;
54545;SDS011;40444;45.184;9.850;2023-12-28T18:32:53;51.72;;;36.75;;
54545;SDS011;40444;45.184;9.850;2023-12-28T18:35:23;53.28;;;37.38;;
54545;SDS011;40444;45.184;9.850;2023-12-28T18:37:52;49.10;;;34.92;;
54545;SDS011;40444;45.184;9.850;2023-12-28T18:40:20;53.75;;;37.45;;
54545;SDS011;40444;45.184;9.850;2023-12-28T18:42:49;56.47;;;37.80;;
54545;SDS011;40444;45.184;9.850;2023-12-28T18:45:18;56.78;;;40.13;;
54545;SDS011;40444;45.184;9.850;2023-12-28T18:47:47;55.40;;;36.97;;
54545;SDS011;40444;45.184;9.850;2023-12-28T18:50:16;58.45;;;37.75;;
54545;SDS011;40444;45.184;9.850;2023-12-28T18:52:44;56.42;;;39.72;;
54545;SDS011;40444;45.184;9.850;2023-12-28T18:55:13;52.35;;;38.00;;
54545;SDS011;40444;45.184;9.850;2023-12-28T18:57:42;50.67;;;36.85;;
54545;SDS011;40444;45.184;9.850;2023-12-28T19:00:11;53.70;;;38.83;;
54545;SDS011;40444;45.184;9.850;2023-12-28T19:02:39;53.15;;;38.38;;
54545;SDS011;40444;45.184;9.850;2023-12-28T19:05:08;77.10;;;54.30;;
54545;SDS011;40444;45.184;9.850;2023-12-28T19:07:36;60.05;;;45.45;;
54545;SDS011;40444;45.184;9.850;2023-12-28T19:10:05;54.45;;;39.78;;
54545;SDS011;40444;45.184;9.850;2023-12-28T19:12:34;50.55;;;36.03;;
54545;SDS011;40444;45.184;9.850;2023-12-28T19:15:02;48.17;;;36.03;;
54545;SDS011;40444;45.184;9.850;2023-12-28T19:17:31;53.22;;;37.03;;
54545;SDS011;40444;45.184;9.850;2023-12-28T19:20:00;48.17;;;35.72;;
54545;SDS011;40444;45.184;9.850;2023-12-28T19:22:29;51.30;;;36.47;;
54545;SDS011;40444;45.184;9.850;2023-12-28T19:24:58;49.60;;;36.85;;
54545;SDS011;40444;45.184;9.850;2023-12-28T19:27:27;48.53;;;35.85;;
54545;SDS011;40444;45.184;9.850;2023-12-28T19:29:56;48.20;;;37.55;;
54545;SDS011;40444;45.184;9.850;2023-12-28T19:32:25;51.72;;;35.70;;
54545;SDS011;40444;45.184;9.850;2023-12-28T19:34:54;56.47;;;38.35;;
54545;SDS011;40444;45.184;9.850;2023-12-28T19:37:26;50.63;;;36.90;;
54545;SDS011;40444;45.184;9.850;2023-12-28T19:39:55;52.15;;;37.17;;
54545;SDS011;40444;45.184;9.850;2023-12-28T19:42:23;50.35;;;35.10;;
54545;SDS011;40444;45.184;9.850;2023-12-28T19:44:52;47.20;;;35.38;;
54545;SDS011;40444;45.184;9.850;2023-12-28T19:47:21;45.90;;;33.17;;
54545;SDS011;40444;45.184;9.850;2023-12-28T19:49:49;48.22;;;34.90;;
54545;SDS011;40444;45.184;9.850;2023-12-28T19:52:18;46.30;;;32.67;;
54545;SDS011;40444;45.184;9.850;2023-12-28T19:54:50;44.55;;;32.97;;
54545;SDS011;40444;45.184;9.850;2023-12-28T19:57:19;43.65;;;30.23;;
54545;SDS011;40444;45.184;9.850;2023-12-28T19:59:48;41.35;;;31.45;;
54545;SDS011;40444;45.184;9.850;2023-12-28T20:02:17;41.10;;;30.27;;
54545;SDS011;40444;45.184;9.850;2023-12-28T20:04:47;39.38;;;29.88;;
54545;SDS011;40444;45.184;9.850;2023-12-28T20:07:16;38.63;;;29.27;;
54545;SDS011;40444;45.184;9.850;2023-12-28T20:09:45;36.65;;;29.38;;
54545;SDS011;40444;45.184;9.850;2023-12-28T20:12:14;43.00;;;28.73;;
54545;SDS011;40444;45.184;9.850;2023-12-28T20:14:42;38.00;;;28.75;;
54545;SDS011;40444;45.184;9.850;2023-12-28T20:17:13;35.17;;;26.77;;
54545;SDS011;40444;45.184;9.850;2023-12-28T20:19:41;35.50;;;27.25;;
54545;SDS011;40444;45.184;9.850;2023-12-28T20:22:10;33.47;;;26.90;;
54545;SDS011;40444;45.184;9.850;2023-12-28T20:24:39;36.13;;;27.00;;
54545;SDS011;40444;45.184;9.850;2023-12-28T20:27:08;31.40;;;26.15;;
54545;SDS011;40444;45.184;9.850;2023-12-28T20:29:37;32.22;;;24.98;;
54545;SDS011;40444;45.184;9.850;2023-12-28T20:32:07;34.53;;;26.00;;
54545;SDS011;40444;45.184;9.850;2023-12-28T20:34:35;33.60;;;25.98;;
54545;SDS011;40444;45.184;9.850;2023-12-28T20:37:04;30.30;;;24.17;;
54545;SDS011;40444;45.184;9.850;2023-12-28T20:39:33;32.38;;;25.85;;
54545;SDS011;40444;45.184;9.850;2023-12-28T20:42:02;33.65;;;23.77;;
54545;SDS011;40444;45.184;9.850;2023-12-28T20:44:31;30.90;;;23.67;;
54545;SDS011;40444;45.184;9.850;2023-12-28T20:47:00;33.78;;;24.20;;
54545;SDS011;40444;45.184;9.850;2023-12-28T20:49:30;31.27;;;23.70;;
54545;SDS011;40444;45.184;9.850;2023-12-28T20:52:12;30.92;;;23.25;;
54545;SDS011;40444;45.184;9.850;2023-12-28T20:54:41;29.08;;;22.55;;
54545;SDS011;40444;45.184;9.850;2023-12-28T20:57:10;26.40;;;21.92;;
54545;SDS011;40444;45.184;9.850;2023-12-28T20:59:39;28.33;;;22.00;;
54545;SDS011;40444;45.184;9.850;2023-12-28T21:02:11;28.30;;;22.60;;
54545;SDS011;40444;45.184;9.850;2023-12-28T21:04:41;25.77;;;21.42;;
54545;SDS011;40444;45.184;9.850;2023-12-28T21:07:11;28.52;;;22.52;;
54545;SDS011;40444;45.184;9.850;2023-12-28T21:09:40;26.77;;;22.05;;
54545;SDS011;40444;45.184;9.850;2023-12-28T21:12:09;26.02;;;21.20;;
54545;SDS011;40444;45.184;9.850;2023-12-28T21:14:40;30.50;;;21.88;;
54545;SDS011;40444;45.184;9.850;2023-12-28T21:17:09;29.90;;;21.95;;
54545;SDS011;40444;45.184;9.850;2023-12-28T21:19:38;27.65;;;22.40;;
54545;SDS011;40444;45.184;9.850;2023-12-28T21:22:14;26.85;;;21.67;;
54545;SDS011;40444;45.184;9.850;2023-12-28T21:24:43;28.48;;;22.65;;
54545;SDS011;40444;45.184;9.850;2023-12-28T21:27:12;25.40;;;21.17;;
54545;SDS011;40444;45.184;9.850;2023-12-28T21:29:41;27.05;;;20.95;;
54545;SDS011;40444;45.184;9.850;2023-12-28T21:32:09;26.27;;;20.77;;
54545;SDS011;40444;45.184;9.850;2023-12-28T21:34:37;23.17;;;20.58;;
54545;SDS011;40444;45.184;9.850;2023-12-28T21:37:06;24.52;;;20.63;;
54545;SDS011;40444;45.184;9.850;2023-12-28T21:39:35;26.73;;;21.23;;
54545;SDS011;40444;45.184;9.850;2023-12-28T21:42:04;28.23;;;21.05;;
54545;SDS011;40444;45.184;9.850;2023-12-28T21:44:32;25.25;;;20.30;;
54545;SDS011;40444;45.184;9.850;2023-12-28T21:47:01;25.65;;;20.33;;
54545;SDS011;40444;45.184;9.850;2023-12-28T21:49:30;24.75;;;20.20;;
54545;SDS011;40444;45.184;9.850;2023-12-28T21:51:58;25.95;;;19.95;;
54545;SDS011;40444;45.184;9.850;2023-12-28T21:54:28;25.60;;;21.85;;
54545;SDS011;40444;45.184;9.850;2023-12-28T21:56:57;24.52;;;19.40;;
54545;SDS011;40444;45.184;9.850;2023-12-28T21:59:25;24.10;;;19.90;;
54545;SDS011;40444;45.184;9.850;2023-12-28T22:01:54;24.73;;;20.58;;
54545;SDS011;40444;45.184;9.850;2023-12-28T22:04:23;24.33;;;19.63;;
54545;SDS011;40444;45.184;9.850;2023-12-28T22:06:52;25.00;;;19.90;;
54545;SDS011;40444;45.184;9.850;2023-12-28T22:09:21;24.35;;;19.73;;
54545;SDS011;40444;45.184;9.850;2023-12-28T22:11:51;26.52;;;20.15;;
54545;SDS011;40444;45.184;9.850;2023-12-28T22:14:19;20.65;;;17.80;;
54545;SDS011;40444;45.184;9.850;2023-12-28T22:16:50;24.17;;;18.88;;
54545;SDS011;40444;45.184;9.850;2023-12-28T22:19:19;24.70;;;19.58;;
54545;SDS011;40444;45.184;9.850;2023-12-28T22:21:49;23.08;;;19.20;;
54545;SDS011;40444;45.184;9.850;2023-12-28T22:24:19;22.42;;;18.60;;
54545;SDS011;40444;45.184;9.850;2023-12-28T22:26:47;24.33;;;18.58;;
54545;SDS011;40444;45.184;9.850;2023-12-28T22:29:16;23.10;;;19.05;;
54545;SDS011;40444;45.184;9.850;2023-12-28T22:31:45;23.08;;;18.40;;
54545;SDS011;40444;45.184;9.850;2023-12-28T22:34:15;24.35;;;19.65;;
54545;SDS011;40444;45.184;9.850;2023-12-28T22:36:44;24.15;;;18.40;;
54545;SDS011;40444;45.184;9.850;2023-12-28T22:39:14;21.35;;;17.70;;
54545;SDS011;40444;45.184;9.850;2023-12-28T22:41:43;23.48;;;18.70;;
54545;SDS011;40444;45.184;9.850;2023-12-28T22:44:12;25.25;;;19.60;;
54545;SDS011;40444;45.184;9.850;2023-12-28T22:46:41;22.73;;;18.95;;
54545;SDS011;40444;45.184;9.850;2023-12-28T22:49:11;24.38;;;19.48;;
54545;SDS011;40444;45.184;9.850;2023-12-28T22:51:40;20.95;;;18.50;;
54545;SDS011;40444;45.184;9.850;2023-12-28T22:54:09;25.08;;;19.52;;
54545;SDS011;40444;45.184;9.850;2023-12-28T22:56:37;27.25;;;19.40;;
54545;SDS011;40444;45.184;9.850;2023-12-28T22:59:06;24.13;;;19.35;;
54545;SDS011;40444;45.184;9.850;2023-12-28T23:01:36;26.05;;;20.88;;
54545;SDS011;40444;45.184;9.850;2023-12-28T23:04:06;24.25;;;20.10;;
54545;SDS011;40444;45.184;9.850;2023-12-28T23:06:34;24.08;;;19.95;;
54545;SDS011;40444;45.184;9.850;2023-12-28T23:09:05;26.60;;;20.85;;
54545;SDS011;40444;45.184;9.850;2023-12-28T23:11:35;24.15;;;19.83;;
54545;SDS011;40444;45.184;9.850;2023-12-28T23:14:07;27.63;;;20.75;;
54545;SDS011;40444;45.184;9.850;2023-12-28T23:16:36;27.33;;;19.90;;
54545;SDS011;40444;45.184;9.850;2023-12-28T23:19:20;25.52;;;19.90;;
54545;SDS011;40444;45.184;9.850;2023-12-28T23:21:49;25.08;;;20.23;;
54545;SDS011;40444;45.184;9.850;2023-12-28T23:24:18;23.88;;;19.80;;
54545;SDS011;40444;45.184;9.850;2023-12-28T23:26:47;27.92;;;19.95;;
54545;SDS011;40444;45.184;9.850;2023-12-28T23:29:16;25.35;;;19.27;;
54545;SDS011;40444;45.184;9.850;2023-12-28T23:31:45;23.35;;;19.88;;
54545;SDS011;40444;45.184;9.850;2023-12-28T23:34:14;26.52;;;20.40;;
54545;SDS011;40444;45.184;9.850;2023-12-28T23:36:56;24.90;;;19.77;;
54545;SDS011;40444;45.184;9.850;2023-12-28T23:39:24;25.80;;;21.00;;
54545;SDS011;40444;45.184;9.850;2023-12-28T23:41:53;32.30;;;22.30;;
54545;SDS011;40444;45.184;9.850;2023-12-28T23:44:22;27.38;;;20.70;;
54545;SDS011;40444;45.184;9.850;2023-12-28T23:46:50;25.98;;;20.55;;
54545;SDS011;40444;45.184;9.850;2023-12-28T23:49:18;25.17;;;21.52;;
54545;SDS011;40444;45.184;9.850;2023-12-28T23:51:48;27.70;;;22.20;;
54545;SDS011;40444;45.184;9.850;2023-12-28T23:54:16;27.63;;;21.67;;
54545;SDS011;40444;45.184;9.850;2023-12-28T23:56:45;29.10;;;22.30;;
54545;SDS011;40444;45.184;9.850;2023-12-28T23:59:13;27.95;;;21.95;;
